Aviation Digital Data Service (ADDS)

Output produced by METARs form (0618 UTC 19 February 2019)
found at http://www.aviationweather.gov/metar/data/
 
METAR text: RJFM 190600Z VRB01KT 3000 -SHRA BR FEW001 SCT003 BKN020 16/16 Q1012
Conditions at: RJFM (MIYAZAKI AIRPORT, JP) observed 0600 UTC 19 February 2019
Temperature: 16.0°C (61°F)
Dewpoint: 16.0°C (61°F) [RH = 100%]
Pressure (altimeter): 29.88 inches Hg (1012.0 mb)
Winds: variable direction winds at 1 MPH (1 knots; 0.5 m/s)
Visibility: 1.86 miles (2.99 km)
Ceiling: 2000 feet AGL
Clouds: few clouds at 100 feet AGL
scattered clouds at 300 feet AGL
broken clouds at 2000 feet AGL
Weather: -SHRA BR  (light rain showers, mist)

METAR text: RJFM 190500Z VRB01KT 3000 SHRA BR FEW003 SCT012 BKN020 15/15 Q1013
Conditions at: RJFM (MIYAZAKI AIRPORT, JP) observed 0500 UTC 19 February 2019
Temperature: 15.0°C (59°F)
Dewpoint: 15.0°C (59°F) [RH = 100%]
Pressure (altimeter): 29.91 inches Hg (1013.0 mb)
Winds: variable direction winds at 1 MPH (1 knots; 0.5 m/s)
Visibility: 1.86 miles (2.99 km)
Ceiling: 2000 feet AGL
Clouds: few clouds at 300 feet AGL
scattered clouds at 1200 feet AGL
broken clouds at 2000 feet AGL
Weather: SHRA BR  (rain showers, mist)

METAR text: RJFM 190412Z VRB02KT 3500 SHRA BR FEW003 BKN012 BKN020 15/15 Q1013 RMK 1ST003 5CU012 7CU020 A2994
Conditions at: RJFM (MIYAZAKI AIRPORT, JP) observed 0412 UTC 19 February 2019
Temperature: 15.0°C (59°F)
Dewpoint: 15.0°C (59°F) [RH = 100%]
Pressure (altimeter): 29.91 inches Hg (1013.0 mb)
Winds: variable direction winds at 2 MPH (2 knots; 1.0 m/s)
Visibility: 2.17 miles (3.49 km)
Ceiling: 1200 feet AGL
Clouds: few clouds at 300 feet AGL
broken clouds at 1200 feet AGL
broken clouds at 2000 feet AGL
Weather: SHRA BR  (rain showers, mist)

METAR text: RJFM 190400Z VRB02KT 1800 R27/1200VP1800U +SHRA BR FEW003 SCT007 BKN012 14/14 Q1014
Conditions at: RJFM (MIYAZAKI AIRPORT, JP) observed 0400 UTC 19 February 2019
Temperature: 14.0°C (57°F)
Dewpoint: 14.0°C (57°F) [RH = 100%]
Pressure (altimeter): 29.94 inches Hg (1014.0 mb)
Winds: variable direction winds at 2 MPH (2 knots; 1.0 m/s)
Visibility: 1.12 miles (1.80 km)
Ceiling: 1200 feet AGL
Clouds: few clouds at 300 feet AGL
scattered clouds at 700 feet AGL
broken clouds at 1200 feet AGL
Weather: +SHRA BR  (heavy rain showers, mist)

METAR text: RJFM 190323Z VRB02KT 2000 R27/1000VP1800D +SHRA BR FEW003 SCT008 BKN015 14/14 Q1015 RMK 1ST003 3ST008 5CU015 A2997
Conditions at: RJFM (MIYAZAKI AIRPORT, JP) observed 0323 UTC 19 February 2019
Temperature: 14.0°C (57°F)
Dewpoint: 14.0°C (57°F) [RH = 100%]
Pressure (altimeter): 29.97 inches Hg (1015.0 mb)
Winds: variable direction winds at 2 MPH (2 knots; 1.0 m/s)
Visibility: 1.24 miles (2.00 km)
Ceiling: 1500 feet AGL
Clouds: few clouds at 300 feet AGL
scattered clouds at 800 feet AGL
broken clouds at 1500 feet AGL
Weather: +SHRA BR  (heavy rain showers, mist)

METAR text: RJFM 190310Z 26003KT 210V290 3000 SHRA BR FEW003 SCT007 BKN020 14/14 Q1015 RMK 1ST003 3ST007 5CU020 A2999
Conditions at: RJFM (MIYAZAKI AIRPORT, JP) observed 0310 UTC 19 February 2019
Temperature: 14.0°C (57°F)
Dewpoint: 14.0°C (57°F) [RH = 100%]
Pressure (altimeter): 29.97 inches Hg (1015.0 mb)
Winds: from the W (260 degrees) at 3 MPH (3 knots; 1.5 m/s)
Visibility: 1.86 miles (2.99 km)
Ceiling: 2000 feet AGL
Clouds: few clouds at 300 feet AGL
scattered clouds at 700 feet AGL
broken clouds at 2000 feet AGL
Weather: SHRA BR  (rain showers, mist)

METAR text: RJFM 190300Z 27003KT 230V300 4500 -SHRA BR FEW003 SCT007 BKN020 14/14 Q1015
Conditions at: RJFM (MIYAZAKI AIRPORT, JP) observed 0300 UTC 19 February 2019
Temperature: 14.0°C (57°F)
Dewpoint: 14.0°C (57°F) [RH = 100%]
Pressure (altimeter): 29.97 inches Hg (1015.0 mb)
Winds: from the W (270 degrees) at 3 MPH (3 knots; 1.5 m/s)
Visibility: 2.80 miles (4.51 km)
Ceiling: 2000 feet AGL
Clouds: few clouds at 300 feet AGL
scattered clouds at 700 feet AGL
broken clouds at 2000 feet AGL
Weather: -SHRA BR  (light rain showers, mist)

METAR text: RJFM 190200Z 31006KT 4000 -SHRA BR FEW003 SCT007 BKN015 13/13 Q1016
Conditions at: RJFM (MIYAZAKI AIRPORT, JP) observed 0200 UTC 19 February 2019
Temperature: 13.0°C (55°F)
Dewpoint: 13.0°C (55°F) [RH = 100%]
Pressure (altimeter): 30.00 inches Hg (1016.0 mb)
Winds: from the NW (310 degrees) at 7 MPH (6 knots; 3.1 m/s)
Visibility: 2.49 miles (4.01 km)
Ceiling: 1500 feet AGL
Clouds: few clouds at 300 feet AGL
scattered clouds at 700 feet AGL
broken clouds at 1500 feet AGL
Weather: -SHRA BR  (light rain showers, mist)

METAR text: RJFM 190123Z 32004KT 3500 -SHRA BR FEW003 SCT007 BKN015 13/12 Q1016 RMK 2ST003 3ST007 6CU015 A3003
Conditions at: RJFM (MIYAZAKI AIRPORT, JP) observed 0123 UTC 19 February 2019
Temperature: 13.0°C (55°F)
Dewpoint: 12.0°C (54°F) [RH = 94%]
Pressure (altimeter): 30.00 inches Hg (1016.0 mb)
Winds: from the NW (320 degrees) at 5 MPH (4 knots; 2.1 m/s)
Visibility: 2.17 miles (3.49 km)
Ceiling: 1500 feet AGL
Clouds: few clouds at 300 feet AGL
scattered clouds at 700 feet AGL
broken clouds at 1500 feet AGL
Weather: -SHRA BR  (light rain showers, mist)

METAR text: RJFM 190100Z 34003KT 290V070 2500 -SHRA BR SCT003 SCT007 BKN015 12/12 Q1017
Conditions at: RJFM (MIYAZAKI AIRPORT, JP) observed 0100 UTC 19 February 2019
Temperature: 12.0°C (54°F)
Dewpoint: 12.0°C (54°F) [RH = 100%]
Pressure (altimeter): 30.03 inches Hg (1017.0 mb)
Winds: from the NNW (340 degrees) at 3 MPH (3 knots; 1.5 m/s)
Visibility: 1.55 miles (2.49 km)
Ceiling: 1500 feet AGL
Clouds: scattered clouds at 300 feet AGL
scattered clouds at 700 feet AGL
broken clouds at 1500 feet AGL
Weather: -SHRA BR  (light rain showers, mist)

METAR text: RJFM 190039Z 28005KT 260V350 2500 -SHRA BR SCT002 SCT008 BKN015 12/12 Q1017 RMK 3ST002 4ST008 7CU015 A3006
Conditions at: RJFM (MIYAZAKI AIRPORT, JP) observed 0039 UTC 19 February 2019
Temperature: 12.0°C (54°F)
Dewpoint: 12.0°C (54°F) [RH = 100%]
Pressure (altimeter): 30.03 inches Hg (1017.0 mb)
Winds: from the W (280 degrees) at 6 MPH (5 knots; 2.6 m/s)
Visibility: 1.55 miles (2.49 km)
Ceiling: 1500 feet AGL
Clouds: scattered clouds at 200 feet AGL
scattered clouds at 800 feet AGL
broken clouds at 1500 feet AGL
Weather: -SHRA BR  (light rain showers, mist)

METAR text: RJFM 190000Z 27005KT 2000 -SHRA BR FEW003 BKN008 BKN015 12/12 Q1018
Conditions at: RJFM (MIYAZAKI AIRPORT, JP) observed 0000 UTC 19 February 2019
Temperature: 12.0°C (54°F)
Dewpoint: 12.0°C (54°F) [RH = 100%]
Pressure (altimeter): 30.06 inches Hg (1018.0 mb)
Winds: from the W (270 degrees) at 6 MPH (5 knots; 2.6 m/s)
Visibility: 1.24 miles (2.00 km)
Ceiling: 800 feet AGL
Clouds: few clouds at 300 feet AGL
broken clouds at 800 feet AGL
broken clouds at 1500 feet AGL
Weather: -SHRA BR  (light rain showers, mist)

METAR text: RJFM 182313Z 27004KT 1800 -SHRA BR FEW005 BKN008 BKN012 12/12 Q1019 RMK 1ST005 5ST008 7CU012 A3010
Conditions at: RJFM (MIYAZAKI AIRPORT, JP) observed 2313 UTC 18 February 2019
Temperature: 12.0°C (54°F)
Dewpoint: 12.0°C (54°F) [RH = 100%]
Pressure (altimeter): 30.09 inches Hg (1019.0 mb)
Winds: from the W (270 degrees) at 5 MPH (4 knots; 2.1 m/s)
Visibility: 1.12 miles (1.80 km)
Ceiling: 800 feet AGL
Clouds: few clouds at 500 feet AGL
broken clouds at 800 feet AGL
broken clouds at 1200 feet AGL
Weather: -SHRA BR  (light rain showers, mist)

METAR text: RJFM 182300Z 27006KT 1500 R27/P1800N -SHRA BR FEW005 BKN008 BKN012 11/11 Q1019
Conditions at: RJFM (MIYAZAKI AIRPORT, JP) observed 2300 UTC 18 February 2019
Temperature: 11.0°C (52°F)
Dewpoint: 11.0°C (52°F) [RH = 100%]
Pressure (altimeter): 30.09 inches Hg (1019.0 mb)
Winds: from the W (270 degrees) at 7 MPH (6 knots; 3.1 m/s)
Visibility: 0.93 miles (1.50 km)
Ceiling: 800 feet AGL
Clouds: few clouds at 500 feet AGL
broken clouds at 800 feet AGL
broken clouds at 1200 feet AGL
Weather: -SHRA BR  (light rain showers, mist)

METAR text: RJFM 182200Z 28004KT 1500 R27/P1800N -SHRA BR SCT004 BKN007 BKN012 11/11 Q1019
Conditions at: RJFM (MIYAZAKI AIRPORT, JP) observed 2200 UTC 18 February 2019
Temperature: 11.0°C (52°F)
Dewpoint: 11.0°C (52°F) [RH = 100%]
Pressure (altimeter): 30.09 inches Hg (1019.0 mb)
Winds: from the W (280 degrees) at 5 MPH (4 knots; 2.1 m/s)
Visibility: 0.93 miles (1.50 km)
Ceiling: 700 feet AGL
Clouds: scattered clouds at 400 feet AGL
broken clouds at 700 feet AGL
broken clouds at 1200 feet AGL
Weather: -SHRA BR  (light rain showers, mist)

METAR text: RJFM 182132Z 29004KT 2000 SHRA BR SCT004 BKN008 BKN015 11/11 Q1019 RMK 3ST004 5ST008 7CU015 A3011
Conditions at: RJFM (MIYAZAKI AIRPORT, JP) observed 2132 UTC 18 February 2019
Temperature: 11.0°C (52°F)
Dewpoint: 11.0°C (52°F) [RH = 100%]
Pressure (altimeter): 30.09 inches Hg (1019.0 mb)
Winds: from the WNW (290 degrees) at 5 MPH (4 knots; 2.1 m/s)
Visibility: 1.24 miles (2.00 km)
Ceiling: 800 feet AGL
Clouds: scattered clouds at 400 feet AGL
broken clouds at 800 feet AGL
broken clouds at 1500 feet AGL
Weather: SHRA BR  (rain showers, mist)

METAR text: RJFM 182110Z 31004KT 2000 -SHRA BR FEW008 BKN010 BKN015 11/11 Q1019 RMK 1ST008 5ST010 7CU015 A3011
Conditions at: RJFM (MIYAZAKI AIRPORT, JP) observed 2110 UTC 18 February 2019
Temperature: 11.0°C (52°F)
Dewpoint: 11.0°C (52°F) [RH = 100%]
Pressure (altimeter): 30.09 inches Hg (1019.0 mb)
Winds: from the NW (310 degrees) at 5 MPH (4 knots; 2.1 m/s)
Visibility: 1.24 miles (2.00 km)
Ceiling: 1000 feet AGL
Clouds: few clouds at 800 feet AGL
broken clouds at 1000 feet AGL
broken clouds at 1500 feet AGL
Weather: -SHRA BR  (light rain showers, mist)

METAR text: RJFM 181200Z 29004KT 9999 FEW015 SCT070 BKN150 12/09 Q1023
Conditions at: RJFM (MIYAZAKI AIRPORT, JP) observed 1200 UTC 18 February 2019
Temperature: 12.0°C (54°F)
Dewpoint: 9.0°C (48°F) [RH = 82%]
Pressure (altimeter): 30.21 inches Hg (1023.0 mb)
Winds: from the WNW (290 degrees) at 5 MPH (4 knots; 2.1 m/s)
Visibility: 6 or more miles (10+ km)
Ceiling: 15000 feet AGL
Clouds: few clouds at 1500 feet AGL
scattered clouds at 7000 feet AGL
broken clouds at 15000 feet AGL
Weather: no significant weather observed at this time

METAR text: RJFM 181100Z 28005KT 9999 FEW015 BKN070 12/09 Q1024
Conditions at: RJFM (MIYAZAKI AIRPORT, JP) observed 1100 UTC 18 February 2019
Temperature: 12.0°C (54°F)
Dewpoint: 9.0°C (48°F) [RH = 82%]
Pressure (altimeter): 30.24 inches Hg (1024.0 mb)
Winds: from the W (280 degrees) at 6 MPH (5 knots; 2.6 m/s)
Visibility: 6 or more miles (10+ km)
Ceiling: 7000 feet AGL
Clouds: few clouds at 1500 feet AGL
broken clouds at 7000 feet AGL
Weather: no significant weather observed at this time

METAR text: RJFM 181000Z 31004KT 9999 FEW015 SCT020 BKN070 12/08 Q1024
Conditions at: RJFM (MIYAZAKI AIRPORT, JP) observed 1000 UTC 18 February 2019
Temperature: 12.0°C (54°F)
Dewpoint: 8.0°C (46°F) [RH = 76%]
Pressure (altimeter): 30.24 inches Hg (1024.0 mb)
Winds: from the NW (310 degrees) at 5 MPH (4 knots; 2.1 m/s)
Visibility: 6 or more miles (10+ km)
Ceiling: 7000 feet AGL
Clouds: few clouds at 1500 feet AGL
scattered clouds at 2000 feet AGL
broken clouds at 7000 feet AGL
Weather: no significant weather observed at this time

METAR text: RJFM 180900Z 34005KT 9999 FEW015 BKN020 BKN025 13/08 Q1024
Conditions at: RJFM (MIYAZAKI AIRPORT, JP) observed 0900 UTC 18 February 2019
Temperature: 13.0°C (55°F)
Dewpoint: 8.0°C (46°F) [RH = 72%]
Pressure (altimeter): 30.24 inches Hg (1024.0 mb)
Winds: from the NNW (340 degrees) at 6 MPH (5 knots; 2.6 m/s)
Visibility: 6 or more miles (10+ km)
Ceiling: 2000 feet AGL
Clouds: few clouds at 1500 feet AGL
broken clouds at 2000 feet AGL
broken clouds at 2500 feet AGL
Weather: no significant weather observed at this time

METAR text: RJFM 180800Z 02005KT 350V050 9999 FEW015 BKN020 BKN025 13/08 Q1023
Conditions at: RJFM (MIYAZAKI AIRPORT, JP) observed 0800 UTC 18 February 2019
Temperature: 13.0°C (55°F)
Dewpoint: 8.0°C (46°F) [RH = 72%]
Pressure (altimeter): 30.21 inches Hg (1023.0 mb)
Winds: from the NNE (20 degrees) at 6 MPH (5 knots; 2.6 m/s)
Visibility: 6 or more miles (10+ km)
Ceiling: 2000 feet AGL
Clouds: few clouds at 1500 feet AGL
broken clouds at 2000 feet AGL
broken clouds at 2500 feet AGL
Weather: no significant weather observed at this time

METAR text: RJFM 180700Z 02004KT 340V070 9999 FEW015 SCT020 BKN025 13/08 Q1023
Conditions at: RJFM (MIYAZAKI AIRPORT, JP) observed 0700 UTC 18 February 2019
Temperature: 13.0°C (55°F)
Dewpoint: 8.0°C (46°F) [RH = 72%]
Pressure (altimeter): 30.21 inches Hg (1023.0 mb)
Winds: from the NNE (20 degrees) at 5 MPH (4 knots; 2.1 m/s)
Visibility: 6 or more miles (10+ km)
Ceiling: 2500 feet AGL
Clouds: few clouds at 1500 feet AGL
scattered clouds at 2000 feet AGL
broken clouds at 2500 feet AGL
Weather: no significant weather observed at this time

METAR text: RJFM 180600Z 01007KT 9999 FEW015 SCT020 BKN025 13/07 Q1023
Conditions at: RJFM (MIYAZAKI AIRPORT, JP) observed 0600 UTC 18 February 2019
Temperature: 13.0°C (55°F)
Dewpoint: 7.0°C (45°F) [RH = 67%]
Pressure (altimeter): 30.21 inches Hg (1023.0 mb)
Winds: from the N (10 degrees) at 8 MPH (7 knots; 3.6 m/s)
Visibility: 6 or more miles (10+ km)
Ceiling: 2500 feet AGL
Clouds: few clouds at 1500 feet AGL
scattered clouds at 2000 feet AGL
broken clouds at 2500 feet AGL
Weather: no significant weather observed at this time

METAR text: RJFM 180500Z 01006KT 9999 FEW015 SCT020 BKN025 12/07 Q1023
Conditions at: RJFM (MIYAZAKI AIRPORT, JP) observed 0500 UTC 18 February 2019
Temperature: 12.0°C (54°F)
Dewpoint: 7.0°C (45°F) [RH = 71%]
Pressure (altimeter): 30.21 inches Hg (1023.0 mb)
Winds: from the N (10 degrees) at 7 MPH (6 knots; 3.1 m/s)
Visibility: 6 or more miles (10+ km)
Ceiling: 2500 feet AGL
Clouds: few clouds at 1500 feet AGL
scattered clouds at 2000 feet AGL
broken clouds at 2500 feet AGL
Weather: no significant weather observed at this time

METAR text: RJFM 180400Z 02008KT 9999 FEW020 BKN023 BKN030 13/07 Q1024
Conditions at: RJFM (MIYAZAKI AIRPORT, JP) observed 0400 UTC 18 February 2019
Temperature: 13.0°C (55°F)
Dewpoint: 7.0°C (45°F) [RH = 67%]
Pressure (altimeter): 30.24 inches Hg (1024.0 mb)
Winds: from the NNE (20 degrees) at 9 MPH (8 knots; 4.1 m/s)
Visibility: 6 or more miles (10+ km)
Ceiling: 2300 feet AGL
Clouds: few clouds at 2000 feet AGL
broken clouds at 2300 feet AGL
broken clouds at 3000 feet AGL
Weather: no significant weather observed at this time

METAR text: RJFM 180300Z 01009KT 9999 FEW020 BKN023 BKN030 12/06 Q1025
Conditions at: RJFM (MIYAZAKI AIRPORT, JP) observed 0300 UTC 18 February 2019
Temperature: 12.0°C (54°F)
Dewpoint: 6.0°C (43°F) [RH = 67%]
Pressure (altimeter): 30.27 inches Hg (1025.0 mb)
Winds: from the N (10 degrees) at 10 MPH (9 knots; 4.6 m/s)
Visibility: 6 or more miles (10+ km)
Ceiling: 2300 feet AGL
Clouds: few clouds at 2000 feet AGL
broken clouds at 2300 feet AGL
broken clouds at 3000 feet AGL
Weather: no significant weather observed at this time

METAR text: RJFM 180200Z 01007KT 9999 FEW020 SCT025 BKN035 12/06 Q1025
Conditions at: RJFM (MIYAZAKI AIRPORT, JP) observed 0200 UTC 18 February 2019
Temperature: 12.0°C (54°F)
Dewpoint: 6.0°C (43°F) [RH = 67%]
Pressure (altimeter): 30.27 inches Hg (1025.0 mb)
Winds: from the N (10 degrees) at 8 MPH (7 knots; 3.6 m/s)
Visibility: 6 or more miles (10+ km)
Ceiling: 3500 feet AGL
Clouds: few clouds at 2000 feet AGL
scattered clouds at 2500 feet AGL
broken clouds at 3500 feet AGL
Weather: no significant weather observed at this time

METAR text: RJFM 180100Z 31006KT 9999 FEW025 SCT030 BKN040 10/03 Q1025
Conditions at: RJFM (MIYAZAKI AIRPORT, JP) observed 0100 UTC 18 February 2019
Temperature: 10.0°C (50°F)
Dewpoint: 3.0°C (37°F) [RH = 62%]
Pressure (altimeter): 30.27 inches Hg (1025.0 mb)
Winds: from the NW (310 degrees) at 7 MPH (6 knots; 3.1 m/s)
Visibility: 6 or more miles (10+ km)
Ceiling: 4000 feet AGL
Clouds: few clouds at 2500 feet AGL
scattered clouds at 3000 feet AGL
broken clouds at 4000 feet AGL
Weather: no significant weather observed at this time

METAR text: RJFM 180000Z 28008KT 9999 FEW020 SCT025 BKN035 08/03 Q1025
Conditions at: RJFM (MIYAZAKI AIRPORT, JP) observed 0000 UTC 18 February 2019
Temperature: 8.0°C (46°F)
Dewpoint: 3.0°C (37°F) [RH = 71%]
Pressure (altimeter): 30.27 inches Hg (1025.0 mb)
Winds: from the W (280 degrees) at 9 MPH (8 knots; 4.1 m/s)
Visibility: 6 or more miles (10+ km)
Ceiling: 3500 feet AGL
Clouds: few clouds at 2000 feet AGL
scattered clouds at 2500 feet AGL
broken clouds at 3500 feet AGL
Weather: no significant weather observed at this time

METAR text: RJFM 172300Z 30008KT 9999 FEW020 BKN035 05/02 Q1025
Conditions at: RJFM (MIYAZAKI AIRPORT, JP) observed 2300 UTC 17 February 2019
Temperature: 5.0°C (41°F)
Dewpoint: 2.0°C (36°F) [RH = 81%]
Pressure (altimeter): 30.27 inches Hg (1025.0 mb)
Winds: from the WNW (300 degrees) at 9 MPH (8 knots; 4.1 m/s)
Visibility: 6 or more miles (10+ km)
Ceiling: 3500 feet AGL
Clouds: few clouds at 2000 feet AGL
broken clouds at 3500 feet AGL
Weather: no significant weather observed at this time

METAR text: RJFM 172200Z 29009KT 9999 FEW030 SCT/// 04/01 Q1024
Conditions at: RJFM (MIYAZAKI AIRPORT, JP) observed 2200 UTC 17 February 2019
Temperature: 4.0°C (39°F)
Dewpoint: 1.0°C (34°F) [RH = 81%]
Pressure (altimeter): 30.24 inches Hg (1024.0 mb)
Winds: from the WNW (290 degrees) at 10 MPH (9 knots; 4.6 m/s)
Visibility: 6 or more miles (10+ km)
Ceiling: at least 12,000 feet AGL
Clouds: few clouds at 3000 feet AGL
Weather: no significant weather observed at this time

METAR text: RJFM 172110Z 30008KT 9999 FEW025 SCT040 BKN/// 04/01 Q1024 RMK 1CU025 3CU040 A3024
Conditions at: RJFM (MIYAZAKI AIRPORT, JP) observed 2110 UTC 17 February 2019
Temperature: 4.0°C (39°F)
Dewpoint: 1.0°C (34°F) [RH = 81%]
Pressure (altimeter): 30.24 inches Hg (1024.0 mb)
Winds: from the WNW (300 degrees) at 9 MPH (8 knots; 4.1 m/s)
Visibility: 6 or more miles (10+ km)
Ceiling: at least 12,000 feet AGL
Clouds: few clouds at 2500 feet AGL
scattered clouds at 4000 feet AGL
Weather: no significant weather observed at this time

Forecast for: RJFM (MIYAZAKI AIRPORT, JP)
Text: TAF RJFM 190513Z 1906/2012 26011KT 9999 FEW030
Forecast period: 0600 UTC 19 February 2019 to 1200 UTC 20 February 2019
Forecast type: FROM: standard forecast or significant change
Winds: from the W (260 degrees) at 13 MPH (11 knots; 5.7 m/s)
Visibility: 6 or more miles 10+ km)
Ceiling: at least 12,000 feet AGL
Clouds: few clouds at 3000 feet AGL
Weather: no significant weather forecast for this period
Text: TEMPO 1906/1908 4000 -SHRA BR FEW005 BKN008 BKN015
Forecast period: 0600 to 0800 UTC 19 February 2019
Forecast type: TEMPORARY: The following changes expected for less than half the time period
Visibility: 2.49 miles (4.01 km)
Ceiling: 800 feet AGL
Clouds: few clouds at 500 feet AGL
broken clouds at 800 feet AGL
broken clouds at 1500 feet AGL
Weather: -SHRA BR  (light rain showers, mist)